createdAt,value
2017-10-19T00:02:09.486Z,23.20
2017-10-19T00:04:37.786Z,31.60
2017-10-19T00:07:06.362Z,66.43
2017-10-19T00:09:35.269Z,31.73
2017-10-19T00:12:04.165Z,35.23
2017-10-19T00:14:32.316Z,30.70
2017-10-19T00:17:00.442Z,39.00
2017-10-19T00:19:28.572Z,38.27
2017-10-19T00:21:57.457Z,43.37
2017-10-19T00:24:27.668Z,109.67
2017-10-19T00:26:56.233Z,131.63
2017-10-19T00:29:24.373Z,32.93
2017-10-19T00:31:52.961Z,41.77
2017-10-19T00:34:21.118Z,28.60
2017-10-19T00:36:49.228Z,27.83
2017-10-19T00:39:17.349Z,40.23
2017-10-19T00:41:46.262Z,79.60
2017-10-19T00:44:14.378Z,41.67
2017-10-19T00:46:42.521Z,45.37
2017-10-19T00:49:10.673Z,73.30
2017-10-19T00:51:40.141Z,85.83
2017-10-19T00:54:08.252Z,61.57
2017-10-19T00:56:36.401Z,54.80
2017-10-19T00:59:05.276Z,61.40
2017-10-19T01:01:33.417Z,39.10
2017-10-19T01:04:01.531Z,32.43
2017-10-19T01:06:29.676Z,25.87
2017-10-19T01:08:58.604Z,16.70
2017-10-19T01:11:27.510Z,14.93
2017-10-19T01:13:55.649Z,19.30
2017-10-19T01:16:23.807Z,32.93
2017-10-19T01:18:51.922Z,22.00
2017-10-19T01:21:20.084Z,28.07
2017-10-19T01:23:48.972Z,62.17
2017-10-19T01:26:17.128Z,34.23
2017-10-19T01:28:45.705Z,62.67
2017-10-19T01:31:13.830Z,257.83
2017-10-19T01:33:41.963Z,315.77
2017-10-19T01:36:10.090Z,156.10
2017-10-19T01:38:38.231Z,138.07
2017-10-19T01:41:07.931Z,179.23
2017-10-19T01:43:36.061Z,31.37
2017-10-19T01:46:04.171Z,29.00
2017-10-19T01:48:33.079Z,22.27
2017-10-19T01:51:01.974Z,28.27
2017-10-19T01:53:30.874Z,71.17
2017-10-19T01:55:58.980Z,79.07
2017-10-19T01:58:27.119Z,28.97
2017-10-19T02:00:55.229Z,337.83
2017-10-19T02:03:23.803Z,148.50
2017-10-19T02:05:51.913Z,73.53
2017-10-19T02:08:21.253Z,37.17
2017-10-19T02:10:49.360Z,78.90
2017-10-19T02:13:17.508Z,55.27
2017-10-19T02:15:45.632Z,62.67
2017-10-19T02:18:13.773Z,94.87
2017-10-19T02:20:41.907Z,59.07
2017-10-19T02:23:10.854Z,50.60
2017-10-19T02:25:40.201Z,26.43
2017-10-19T02:28:09.105Z,29.57
2017-10-19T02:30:37.229Z,42.03
2017-10-19T02:33:05.393Z,25.87
2017-10-19T02:35:34.042Z,22.00
2017-10-19T02:38:02.166Z,22.27
2017-10-19T02:40:30.304Z,24.10
2017-10-19T02:42:58.444Z,53.57
2017-10-19T02:45:26.603Z,35.80
2017-10-19T02:47:55.490Z,44.83
2017-10-19T02:50:24.406Z,47.47
2017-10-19T02:52:52.534Z,26.67
2017-10-19T02:55:20.693Z,54.47
2017-10-19T02:57:49.802Z,31.83
2017-10-19T03:00:17.940Z,65.00
2017-10-19T03:02:46.070Z,55.23
2017-10-19T03:05:14.686Z,36.87
2017-10-19T03:07:42.797Z,46.87
2017-10-19T03:10:11.005Z,31.63
2017-10-19T03:12:39.886Z,31.00
2017-10-19T03:15:08.048Z,67.33
2017-10-19T03:17:36.658Z,29.00
2017-10-19T03:20:05.569Z,38.10
2017-10-19T03:22:33.694Z,45.23
2017-10-19T03:25:01.843Z,40.07
2017-10-19T03:27:29.964Z,37.30
2017-10-19T03:29:58.897Z,34.73
2017-10-19T03:32:27.029Z,25.53
2017-10-19T03:34:55.633Z,55.77
2017-10-19T03:37:23.771Z,38.50
2017-10-19T03:39:51.894Z,45.53
2017-10-19T03:42:20.042Z,36.20
2017-10-19T03:44:48.924Z,23.90
2017-10-19T03:47:17.837Z,35.53
2017-10-19T03:49:48.293Z,36.30
2017-10-19T03:52:16.445Z,27.00
2017-10-19T03:54:44.573Z,31.70
2017-10-19T03:57:12.722Z,28.53
2017-10-19T03:59:40.858Z,36.73
2017-10-19T04:02:09.006Z,33.83
2017-10-19T04:04:37.893Z,38.20
2017-10-19T04:07:06.034Z,55.00
2017-10-19T04:09:34.162Z,24.70
2017-10-19T04:12:03.065Z,20.60
2017-10-19T04:14:31.181Z,47.60
2017-10-19T04:16:59.329Z,31.70
2017-10-19T04:19:27.452Z,25.00
2017-10-19T04:21:56.452Z,21.83
2017-10-19T04:24:25.361Z,36.57
2017-10-19T04:26:53.481Z,44.00
2017-10-19T04:29:21.624Z,33.83
2017-10-19T04:31:49.773Z,42.47
2017-10-19T04:34:18.245Z,25.10
2017-10-19T04:36:46.437Z,36.57
2017-10-19T04:39:14.582Z,26.40
2017-10-19T04:41:45.752Z,41.70
2017-10-19T04:44:14.453Z,36.90
2017-10-19T04:46:42.581Z,64.57
2017-10-19T04:49:10.748Z,35.83
2017-10-19T04:51:39.280Z,35.40
2017-10-19T04:54:07.420Z,28.07
2017-10-19T04:56:36.317Z,124.17
2017-10-19T04:59:05.230Z,59.60
2017-10-19T05:01:33.349Z,82.90
2017-10-19T05:04:03.581Z,48.43
2017-10-19T05:06:31.737Z,40.20
2017-10-19T05:09:00.268Z,22.43
2017-10-19T05:11:29.153Z,30.73
2017-10-19T05:13:58.071Z,21.07
2017-10-19T05:16:26.601Z,20.30
2017-10-19T05:18:54.766Z,23.30
2017-10-19T05:21:23.688Z,22.70
2017-10-19T05:23:52.614Z,22.10
2017-10-19T05:26:20.748Z,18.83
2017-10-19T05:28:48.931Z,16.17
2017-10-19T05:31:17.823Z,20.23
2017-10-19T05:33:47.212Z,19.90
2017-10-19T05:36:16.121Z,21.10
2017-10-19T05:38:44.999Z,30.00
2017-10-19T05:41:13.919Z,40.13
2017-10-19T05:43:42.048Z,31.37
2017-10-19T05:46:10.188Z,24.10
2017-10-19T05:48:38.829Z,39.50
2017-10-19T05:51:08.716Z,28.30
2017-10-19T05:53:36.837Z,19.30
2017-10-19T05:56:05.826Z,64.30
2017-10-19T05:58:34.709Z,42.13
2017-10-19T06:01:03.611Z,41.03
2017-10-19T06:03:31.748Z,30.27
2017-10-19T06:05:59.882Z,51.90
2017-10-19T06:08:28.477Z,62.67
2017-10-19T06:10:56.624Z,93.23
2017-10-19T06:13:24.745Z,52.47
2017-10-19T06:15:52.901Z,25.73
2017-10-19T06:18:21.018Z,24.57
2017-10-19T06:20:49.923Z,19.40
2017-10-19T06:23:18.063Z,39.73
2017-10-19T06:25:46.224Z,45.60
2017-10-19T06:28:14.414Z,65.90
2017-10-19T06:30:43.338Z,115.17
2017-10-19T06:33:11.463Z,63.43
2017-10-19T06:35:39.615Z,52.43
2017-10-19T06:38:07.752Z,34.13
2017-10-19T06:40:36.004Z,43.80
2017-10-19T06:43:04.115Z,61.23
2017-10-19T06:45:32.277Z,40.97
2017-10-19T06:48:01.166Z,37.80
2017-10-19T06:50:30.082Z,43.50
2017-10-19T06:52:58.196Z,21.50
2017-10-19T06:55:27.566Z,25.00
2017-10-19T06:57:55.689Z,33.17
2017-10-19T07:00:24.631Z,44.23
2017-10-19T07:02:52.761Z,36.10
2017-10-19T07:05:21.339Z,34.73
2017-10-19T07:07:50.257Z,39.33
2017-10-19T07:10:18.377Z,25.60
2017-10-19T07:12:46.526Z,25.33
2017-10-19T07:15:14.723Z,24.87
2017-10-19T07:17:42.881Z,23.63
2017-10-19T07:20:11.517Z,29.13
2017-10-19T07:22:40.429Z,25.37
2017-10-19T07:25:08.823Z,19.90
2017-10-19T07:27:37.125Z,18.40
2017-10-19T07:30:05.247Z,21.00
2017-10-19T07:32:33.389Z,17.57
2017-10-19T07:35:01.849Z,20.47
2017-10-19T07:37:30.055Z,16.60
2017-10-19T07:39:58.197Z,17.93
2017-10-19T07:42:26.366Z,15.63
2017-10-19T07:44:54.507Z,18.13
2017-10-19T07:47:22.680Z,16.17
2017-10-19T07:49:50.801Z,17.10
2017-10-19T07:52:18.994Z,19.30
2017-10-19T07:54:47.113Z,19.00
2017-10-19T07:57:15.278Z,18.30
2017-10-19T07:59:43.400Z,19.90
2017-10-19T08:02:11.543Z,19.10
2017-10-19T08:04:39.665Z,19.67
2017-10-19T08:07:08.610Z,19.20
2017-10-19T08:09:36.720Z,23.80
2017-10-19T08:12:04.917Z,23.97
2017-10-19T08:14:33.814Z,21.67
2017-10-19T08:17:03.007Z,25.70
2017-10-19T08:19:31.266Z,22.87
2017-10-19T08:22:00.197Z,24.30
2017-10-19T08:24:28.331Z,27.83
2017-10-19T08:26:56.499Z,26.30
2017-10-19T08:29:24.621Z,30.33
2017-10-19T08:31:52.757Z,26.63
2017-10-19T08:34:21.642Z,26.07
2017-10-19T08:36:49.771Z,28.70
2017-10-19T08:39:17.892Z,28.20
2017-10-19T08:41:46.811Z,24.50
2017-10-19T08:44:14.924Z,25.87
2017-10-19T08:46:43.437Z,23.47
2017-10-19T08:49:12.323Z,31.30
2017-10-19T08:51:41.243Z,26.63
2017-10-19T08:54:09.376Z,23.23
2017-10-19T08:56:37.567Z,23.60
2017-10-19T08:59:06.493Z,25.53
2017-10-19T09:01:34.629Z,27.43
2017-10-19T09:04:03.662Z,25.30
2017-10-19T09:06:31.788Z,26.17
2017-10-19T09:08:59.941Z,23.73
2017-10-19T09:11:28.073Z,24.37
2017-10-19T09:13:57.226Z,26.83
2017-10-19T09:16:26.152Z,25.67
2017-10-19T09:18:54.312Z,31.23
2017-10-19T09:21:24.100Z,26.05
2017-10-19T09:23:52.253Z,23.30
2017-10-19T09:26:20.791Z,26.57
2017-10-19T09:28:49.053Z,27.43
2017-10-19T09:31:17.943Z,25.47
2017-10-19T09:33:46.846Z,25.93
2017-10-19T09:36:15.734Z,29.90
2017-10-19T09:38:44.641Z,26.53
2017-10-19T09:41:12.755Z,25.50
2017-10-19T09:43:43.583Z,35.17
2017-10-19T09:46:11.700Z,27.73
2017-10-19T09:48:40.620Z,32.60
2017-10-19T09:51:09.349Z,27.83
2017-10-19T09:53:37.484Z,25.43
2017-10-19T09:56:05.628Z,31.70
2017-10-19T09:58:34.536Z,31.43
2017-10-19T10:01:02.656Z,30.70
2017-10-19T10:03:30.769Z,27.07
2017-10-19T10:05:59.678Z,29.20
2017-10-19T10:08:27.852Z,29.00
2017-10-19T10:10:55.989Z,23.57
2017-10-19T10:13:24.116Z,24.30
2017-10-19T10:15:52.253Z,21.63
2017-10-19T10:18:21.136Z,21.03
2017-10-19T10:20:49.278Z,22.67
2017-10-19T10:23:17.398Z,16.60
2017-10-19T10:25:45.910Z,25.67
2017-10-19T10:28:14.021Z,22.97
2017-10-19T10:30:42.172Z,25.23
2017-10-19T10:33:12.335Z,30.20
2017-10-19T10:35:41.239Z,28.83
2017-10-19T10:38:09.394Z,24.37
2017-10-19T10:40:37.540Z,22.10
2017-10-19T10:43:05.662Z,24.47
2017-10-19T10:45:33.804Z,25.33
2017-10-19T10:48:01.913Z,24.00
2017-10-19T10:50:30.061Z,21.70
2017-10-19T10:52:58.204Z,27.83
2017-10-19T10:55:26.360Z,23.50
2017-10-19T10:57:54.622Z,25.10
2017-10-19T11:00:22.841Z,22.33
2017-10-19T11:02:50.974Z,19.50
2017-10-19T11:05:19.113Z,17.87
2017-10-19T11:07:48.007Z,21.70
2017-10-19T11:10:16.886Z,18.77
2017-10-19T11:12:45.786Z,21.13
2017-10-19T11:15:14.759Z,18.63
2017-10-19T11:17:42.902Z,22.37
2017-10-19T11:20:11.029Z,15.90
2017-10-19T11:22:39.944Z,15.60
2017-10-19T11:25:08.053Z,20.43
2017-10-19T11:27:36.190Z,21.53
2017-10-19T11:30:04.313Z,21.53
2017-10-19T11:32:32.453Z,18.97
2017-10-19T11:35:01.225Z,20.90
2017-10-19T11:37:29.363Z,20.27
2017-10-19T11:39:57.993Z,17.37
2017-10-19T11:42:26.136Z,18.97
2017-10-19T11:44:55.331Z,20.40
2017-10-19T11:47:24.229Z,18.60
2017-10-19T11:49:53.113Z,20.50
2017-10-19T11:52:22.022Z,18.20
2017-10-19T11:54:50.159Z,16.37
2017-10-19T11:57:18.303Z,37.47
2017-10-19T11:59:46.422Z,16.23
2017-10-19T12:02:15.337Z,16.00
2017-10-19T12:04:43.444Z,20.47
2017-10-19T12:07:11.786Z,16.33
2017-10-19T12:09:39.892Z,15.87
2017-10-19T12:12:08.046Z,25.43
2017-10-19T12:14:36.172Z,16.27
2017-10-19T12:17:05.755Z,14.00
2017-10-19T12:19:34.556Z,14.93
2017-10-19T12:22:02.735Z,16.43
2017-10-19T12:24:30.858Z,22.67
2017-10-19T12:26:58.982Z,20.70
2017-10-19T12:29:27.124Z,30.70
2017-10-19T12:31:55.253Z,16.33
2017-10-19T12:34:24.148Z,19.37
2017-10-19T12:36:53.037Z,14.90
2017-10-19T12:39:21.939Z,21.33
2017-10-19T12:41:50.070Z,14.37
2017-10-19T12:44:18.208Z,18.63
2017-10-19T12:46:46.339Z,20.63
2017-10-19T12:49:15.656Z,15.30
2017-10-19T12:51:43.768Z,15.20
2017-10-19T12:54:11.917Z,17.80
2017-10-19T12:56:40.029Z,25.67
2017-10-19T12:59:08.164Z,16.50
2017-10-19T13:01:36.303Z,16.40
2017-10-19T13:04:05.109Z,19.77
2017-10-19T13:06:33.224Z,23.43
2017-10-19T13:09:01.368Z,16.10
2017-10-19T13:11:29.916Z,15.90
2017-10-19T13:13:59.955Z,19.60
2017-10-19T13:16:28.067Z,15.90
2017-10-19T13:18:56.221Z,18.63
2017-10-19T13:21:25.406Z,16.73
2017-10-19T13:23:53.574Z,17.97
2017-10-19T13:26:21.693Z,15.97
2017-10-19T13:28:50.200Z,17.97
2017-10-19T13:31:18.368Z,22.10
2017-10-19T13:33:46.501Z,14.60
2017-10-19T13:36:15.197Z,15.50
2017-10-19T13:38:43.773Z,17.23
2017-10-19T13:41:11.915Z,16.70
2017-10-19T13:43:40.800Z,14.80
2017-10-19T13:46:09.707Z,18.07
2017-10-19T13:48:38.835Z,18.60
2017-10-19T13:51:07.293Z,23.00
2017-10-19T13:53:35.396Z,20.80
2017-10-19T13:56:04.070Z,18.50
2017-10-19T13:58:32.217Z,15.60
2017-10-19T14:01:00.365Z,20.00
2017-10-19T14:03:28.477Z,16.20
2017-10-19T14:05:56.609Z,16.83
2017-10-19T14:08:24.723Z,18.50
2017-10-19T14:10:52.861Z,14.13
2017-10-19T14:13:20.968Z,17.50
2017-10-19T14:15:49.101Z,17.77
2017-10-19T14:18:17.224Z,15.13
2017-10-19T14:20:45.374Z,17.63
2017-10-19T14:23:14.262Z,15.23
2017-10-19T14:25:43.680Z,16.83
2017-10-19T14:28:11.964Z,18.67
2017-10-19T14:30:42.616Z,18.67
2017-10-19T14:33:10.746Z,16.93
2017-10-19T14:35:39.657Z,18.20
2017-10-19T14:38:08.713Z,15.13
2017-10-19T14:40:38.364Z,16.73
2017-10-19T14:43:06.518Z,16.47
2017-10-19T14:45:35.407Z,15.23
2017-10-19T14:48:04.811Z,13.03
2017-10-19T14:50:33.704Z,14.77
2017-10-19T14:53:03.920Z,18.83
2017-10-19T14:55:32.801Z,18.43
2017-10-19T14:58:00.950Z,17.60
2017-10-19T15:00:30.520Z,21.67
2017-10-19T15:02:58.662Z,15.10
2017-10-19T15:05:26.797Z,18.97
2017-10-19T15:07:55.036Z,21.37
2017-10-19T15:10:23.378Z,20.27
2017-10-19T15:12:53.182Z,14.37
2017-10-19T15:15:21.355Z,18.20
2017-10-19T15:17:49.720Z,15.37
2017-10-19T15:20:18.068Z,15.20
2017-10-19T15:22:46.270Z,20.70
2017-10-19T15:25:14.414Z,15.70
2017-10-19T15:27:42.566Z,18.73
2017-10-19T15:30:10.684Z,19.27
2017-10-19T15:32:38.842Z,18.10
2017-10-19T15:35:08.185Z,17.83
2017-10-19T15:37:36.323Z,17.83
2017-10-19T15:40:04.451Z,19.50
2017-10-19T15:42:32.608Z,21.30
2017-10-19T15:45:02.038Z,16.20
2017-10-19T15:47:30.973Z,16.93
2017-10-19T15:49:59.083Z,14.10
2017-10-19T15:52:27.204Z,13.43
2017-10-19T15:54:55.710Z,16.73
2017-10-19T15:57:23.868Z,16.20
2017-10-19T15:59:53.526Z,11.90
2017-10-19T16:02:23.169Z,18.67
2017-10-19T16:04:51.351Z,16.27
2017-10-19T16:07:19.465Z,18.30
2017-10-19T16:09:47.618Z,16.10
2017-10-19T16:12:15.740Z,20.40
2017-10-19T16:14:44.662Z,24.67
2017-10-19T16:17:12.790Z,16.87
2017-10-19T16:19:40.940Z,21.53
2017-10-19T16:22:09.072Z,19.83
2017-10-19T16:24:37.204Z,17.73
2017-10-19T16:27:05.330Z,15.73
2017-10-19T16:29:33.477Z,23.93
2017-10-19T16:32:02.365Z,22.73
2017-10-19T16:34:31.260Z,20.33
2017-10-19T16:37:00.154Z,22.33
2017-10-19T16:39:29.114Z,20.57
2017-10-19T16:41:57.239Z,19.67
2017-10-19T16:44:25.376Z,20.80
2017-10-19T16:46:53.932Z,21.70
2017-10-19T16:49:22.073Z,28.77
2017-10-19T16:51:50.195Z,21.13
2017-10-19T16:54:18.345Z,18.90
2017-10-19T16:56:50.353Z,17.97
2017-10-19T16:59:19.945Z,21.33
2017-10-19T17:01:48.079Z,23.80
2017-10-19T17:04:17.845Z,44.80
2017-10-19T17:06:46.477Z,40.00
2017-10-19T17:09:14.988Z,20.23
2017-10-19T17:11:43.559Z,32.70
2017-10-19T17:14:12.972Z,21.90
2017-10-19T17:16:41.108Z,28.70
2017-10-19T17:19:09.226Z,29.97
2017-10-19T17:21:37.417Z,28.13
2017-10-19T17:24:06.314Z,30.30
2017-10-19T17:26:35.235Z,32.47
2017-10-19T17:29:03.476Z,24.40
2017-10-19T17:31:33.753Z,30.50
2017-10-19T17:34:02.383Z,40.00
2017-10-19T17:36:31.022Z,34.10
2017-10-19T17:38:59.142Z,21.23
2017-10-19T17:41:28.054Z,22.67
2017-10-19T17:43:56.185Z,21.80
2017-10-19T17:46:24.320Z,21.87
2017-10-19T17:48:55.377Z,26.70
2017-10-19T17:51:23.621Z,21.17
2017-10-19T17:53:55.253Z,20.57
2017-10-19T17:56:24.185Z,19.07
2017-10-19T17:58:52.302Z,17.70
2017-10-19T18:01:20.972Z,18.80
2017-10-19T18:03:49.128Z,14.27
2017-10-19T18:06:18.962Z,22.10
2017-10-19T18:08:47.136Z,15.73
2017-10-19T18:11:15.280Z,18.63
2017-10-19T18:13:43.417Z,16.53
2017-10-19T18:16:12.298Z,17.80
2017-10-19T18:18:43.720Z,23.03
2017-10-19T18:21:11.838Z,35.73
2017-10-19T18:23:42.754Z,38.30
2017-10-19T18:26:11.344Z,29.77
2017-10-19T18:28:41.548Z,27.40
2017-10-19T18:31:10.847Z,25.13
2017-10-19T18:33:39.495Z,34.07
2017-10-19T18:36:08.771Z,32.10
2017-10-19T18:38:37.749Z,27.20
2017-10-19T18:41:05.879Z,37.80
2017-10-19T18:43:37.847Z,26.87
2017-10-19T18:46:05.970Z,29.30
2017-10-19T18:48:34.945Z,29.20
2017-10-19T18:51:05.430Z,30.73
2017-10-19T18:53:33.573Z,24.20
2017-10-19T18:56:02.873Z,32.60
2017-10-19T18:58:32.266Z,22.07
2017-10-19T19:01:00.390Z,23.90
2017-10-19T19:03:29.108Z,22.47
2017-10-19T19:06:00.761Z,23.23
2017-10-19T19:08:28.909Z,23.90
2017-10-19T19:11:00.902Z,24.03
2017-10-19T19:13:31.058Z,24.63
2017-10-19T19:16:00.239Z,21.10
2017-10-19T19:18:29.111Z,25.70
2017-10-19T19:20:59.231Z,22.83
2017-10-19T19:23:28.171Z,24.23
2017-10-19T19:25:56.325Z,26.83
2017-10-19T19:28:31.105Z,22.40
2017-10-19T19:30:59.708Z,21.77
2017-10-19T19:33:31.058Z,21.30
2017-10-19T19:36:03.188Z,21.87
2017-10-19T19:38:31.399Z,26.10
2017-10-19T19:41:02.101Z,21.90
2017-10-19T19:43:33.797Z,23.00
2017-10-19T19:46:02.696Z,24.17
2017-10-19T19:48:32.614Z,22.57
2017-10-19T19:51:02.948Z,28.67
2017-10-19T19:53:32.955Z,21.27
2017-10-19T19:56:01.081Z,26.03
2017-10-19T19:58:29.862Z,21.90
2017-10-19T20:00:59.407Z,20.63
2017-10-19T20:03:27.626Z,18.70
2017-10-19T20:05:58.344Z,23.23
2017-10-19T20:08:28.585Z,22.90
2017-10-19T20:10:58.044Z,23.50
2017-10-19T20:13:26.243Z,21.10
2017-10-19T20:15:55.498Z,23.70
2017-10-19T20:18:25.266Z,25.50
2017-10-19T20:20:54.020Z,25.03
2017-10-19T20:23:22.652Z,22.57
2017-10-19T20:25:50.791Z,22.17
2017-10-19T20:28:19.081Z,21.13
2017-10-19T20:30:47.216Z,20.90
2017-10-19T20:33:16.145Z,23.23
2017-10-19T20:35:46.630Z,24.70
2017-10-19T20:38:14.753Z,24.30
2017-10-19T20:40:44.856Z,28.07
2017-10-19T20:43:13.437Z,23.47
2017-10-19T20:45:46.120Z,21.33
2017-10-19T20:48:17.080Z,19.23
2017-10-19T20:50:46.932Z,20.40
2017-10-19T20:53:18.600Z,22.03
2017-10-19T20:55:50.567Z,20.60
2017-10-19T20:58:20.758Z,22.63
2017-10-19T21:00:51.403Z,24.20
2017-10-19T21:03:21.329Z,19.27
2017-10-19T21:05:50.558Z,23.50
2017-10-19T21:08:20.112Z,26.80
2017-10-19T21:10:50.786Z,22.90
2017-10-19T21:13:21.708Z,21.47
2017-10-19T21:15:50.796Z,23.00
2017-10-19T21:18:19.719Z,22.30
2017-10-19T21:20:49.682Z,22.03
2017-10-19T21:23:20.532Z,21.80
2017-10-19T21:25:50.100Z,24.13
2017-10-19T21:28:20.291Z,25.63
2017-10-19T21:30:50.597Z,26.93
2017-10-19T21:33:19.689Z,26.80
2017-10-19T21:35:52.801Z,23.63
2017-10-19T21:38:23.185Z,25.97
2017-10-19T21:40:51.397Z,27.23
2017-10-19T21:43:19.573Z,24.73
2017-10-19T21:45:48.529Z,22.50
2017-10-19T21:48:18.021Z,26.93
2017-10-19T21:53:27.298Z,32.43
2017-10-19T21:56:05.936Z,25.50
2017-10-19T21:58:34.244Z,20.63
2017-10-19T22:01:10.487Z,22.17
2017-10-19T22:03:40.823Z,23.50
2017-10-19T22:06:11.401Z,24.40
2017-10-19T22:08:39.980Z,21.33
2017-10-19T22:11:08.606Z,20.57
2017-10-19T22:13:37.729Z,24.00
2017-10-19T22:16:06.326Z,25.73
2017-10-19T22:18:38.346Z,20.77
2017-10-19T22:21:06.552Z,22.80
2017-10-19T22:23:34.668Z,23.17
2017-10-19T22:26:05.778Z,27.30
2017-10-19T22:28:33.917Z,24.57
2017-10-19T22:31:05.887Z,20.77
2017-10-19T22:33:34.010Z,21.63
2017-10-19T22:36:04.597Z,30.00
2017-10-19T22:38:34.693Z,23.47
2017-10-19T22:41:05.207Z,22.80
2017-10-19T22:43:34.328Z,24.97
2017-10-19T22:46:04.268Z,27.87
2017-10-19T22:48:32.814Z,22.07
2017-10-19T22:51:02.120Z,21.40
2017-10-19T22:53:32.335Z,27.17
2017-10-19T22:56:00.493Z,28.90
2017-10-19T22:58:29.462Z,49.03
2017-10-19T23:00:59.268Z,27.30
2017-10-19T23:03:28.048Z,24.00
2017-10-19T23:05:56.171Z,24.33
2017-10-19T23:08:25.033Z,23.93
2017-10-19T23:10:53.910Z,22.50
2017-10-19T23:13:25.754Z,24.33
2017-10-19T23:15:53.903Z,23.60
2017-10-19T23:18:23.451Z,23.60
2017-10-19T23:20:56.340Z,23.37
2017-10-19T23:23:25.293Z,22.13
2017-10-19T23:25:55.657Z,25.03
2017-10-19T23:28:25.809Z,22.30
2017-10-19T23:30:53.939Z,21.53
2017-10-19T23:33:26.017Z,23.13
2017-10-19T23:35:57.118Z,21.07
2017-10-19T23:38:26.684Z,23.27
2017-10-19T23:40:54.804Z,18.00
2017-10-19T23:43:23.423Z,22.13
2017-10-19T23:45:52.309Z,26.10
2017-10-19T23:48:21.225Z,23.73
2017-10-19T23:50:49.341Z,19.67
2017-10-19T23:53:17.493Z,21.07
2017-10-19T23:55:45.613Z,20.87
2017-10-19T23:58:13.723Z,21.73
